Time;durP1;ratioP1;P1;durP2;ratioP2;P2;SDS_P1;SDS_P2;PMS_P1;PMS_P2;Temp;Humidity;BMP_temperature;BMP_pressure;BME280_temperature;BME280_humidity;BME280_pressure;Samples;Min_cycle;Max_cycle;Signal;HPM_P1;HPM_P2
2021/11/14 00:01:22;;;;;;;195.27;91.33;;;;;;;;;;4456402;32;20665;-52
2021/11/14 00:03:48;;;;;;;177.90;90.67;;;;;;;;;;4463937;32;20769;-53
2021/11/14 00:06:15;;;;;;;196.97;96.73;;;;;;;;;;4464130;32;20307;-54
2021/11/14 00:08:41;;;;;;;197.87;98.37;;;;;;;;;;4464304;32;20639;-53
2021/11/14 00:11:10;;;;;;;192.67;98.97;;;;;;;;;;4462966;32;20220;-52
2021/11/14 00:13:41;;;;;;;164.97;85.23;;;;;;;;;;4450837;32;20266;-54
2021/11/14 00:16:10;;;;;;;160.80;82.50;;;;;;;;;;4463209;32;20385;-53
2021/11/14 00:18:36;;;;;;;170.13;84.33;;;;;;;;;;4456474;32;20240;-54
2021/11/14 00:21:02;;;;;;;176.30;79.37;;;;;;;;;;4457385;32;20236;-53
2021/11/14 00:23:28;;;;;;;153.73;75.80;;;;;;;;;;4463527;32;20805;-55
2021/11/14 00:25:53;;;;;;;147.53;74.60;;;;;;;;;;4462648;32;20347;-53
2021/11/14 00:28:19;;;;;;;159.60;74.63;;;;;;;;;;4463945;32;20287;-52
2021/11/14 00:30:45;;;;;;;153.07;73.93;;;;;;;;;;4463566;32;20275;-52
2021/11/14 00:33:11;;;;;;;156.13;83.00;;;;;;;;;;4463593;32;20196;-52
2021/11/14 00:35:38;;;;;;;164.80;80.67;;;;;;;;;;4450427;32;20236;-52
2021/11/14 00:38:03;;;;;;;139.80;69.13;;;;;;;;;;4461657;32;22102;-53
2021/11/14 00:40:32;;;;;;;125.70;63.93;;;;;;;;;;4460110;32;20322;-52
2021/11/14 00:42:59;;;;;;;125.27;60.53;;;;;;;;;;4457327;32;20330;-53
2021/11/14 00:45:27;;;;;;;117.40;62.90;;;;;;;;;;4451061;32;20672;-53
2021/11/14 00:47:52;;;;;;;113.20;55.40;;;;;;;;;;4460036;32;20574;-53
2021/11/14 00:50:19;;;;;;;97.23;49.60;;;;;;;;;;4453572;32;20291;-54
2021/11/14 00:52:45;;;;;;;92.77;43.80;;;;;;;;;;4453438;32;20260;-52
2021/11/14 00:55:16;;;;;;;98.70;46.80;;;;;;;;;;4455771;32;20287;-53
2021/11/14 00:57:41;;;;;;;92.37;44.97;;;;;;;;;;4463085;32;20250;-54
2021/11/14 01:00:12;;;;;;;88.00;48.20;;;;;;;;;;4463414;32;20287;-54
2021/11/14 01:02:39;;;;;;;92.17;44.57;;;;;;;;;;4463230;32;20268;-53
2021/11/14 01:05:06;;;;;;;86.17;44.37;;;;;;;;;;4463241;32;20255;-53
2021/11/14 01:07:32;;;;;;;91.57;45.40;;;;;;;;;;4462247;32;20303;-52
2021/11/14 01:09:57;;;;;;;78.73;37.13;;;;;;;;;;4451191;32;20321;-54
2021/11/14 01:12:23;;;;;;;74.67;36.80;;;;;;;;;;4456722;32;20295;-52
2021/11/14 01:14:48;;;;;;;57.10;30.80;;;;;;;;;;4455230;32;20315;-52
2021/11/14 01:17:16;;;;;;;69.83;35.33;;;;;;;;;;4462455;32;20771;-54
2021/11/14 01:19:41;;;;;;;80.57;38.00;;;;;;;;;;4450317;32;20208;-53
2021/11/14 01:22:07;;;;;;;71.37;37.63;;;;;;;;;;4462969;32;20242;-52
2021/11/14 01:24:33;;;;;;;87.77;42.70;;;;;;;;;;4457866;32;20317;-55
2021/11/14 01:26:58;;;;;;;84.97;38.03;;;;;;;;;;4457138;32;20662;-53
2021/11/14 01:29:24;;;;;;;79.33;38.13;;;;;;;;;;4456408;32;20346;-51
2021/11/14 01:31:49;;;;;;;76.90;37.27;;;;;;;;;;4464920;32;20216;-51
2021/11/14 01:34:15;;;;;;;71.97;37.40;;;;;;;;;;4466937;32;20295;-52
2021/11/14 01:36:40;;;;;;;83.40;39.93;;;;;;;;;;4465433;32;20549;-54
2021/11/14 01:39:07;;;;;;;87.43;39.77;;;;;;;;;;4466522;32;20706;-52
2021/11/14 01:41:34;;;;;;;76.87;38.47;;;;;;;;;;4466762;32;20359;-53
2021/11/14 01:44:02;;;;;;;85.83;38.97;;;;;;;;;;4465273;32;20559;-53
2021/11/14 01:46:28;;;;;;;79.93;38.67;;;;;;;;;;4466467;32;20252;-54
2021/11/14 01:48:53;;;;;;;91.10;42.47;;;;;;;;;;4466784;32;20282;-54
2021/11/14 01:51:20;;;;;;;94.90;51.43;;;;;;;;;;4466151;32;20794;-52
2021/11/14 01:53:47;;;;;;;114.47;62.27;;;;;;;;;;4466058;32;20209;-53
2021/11/14 01:56:14;;;;;;;121.23;62.87;;;;;;;;;;4465746;32;20279;-53
2021/11/14 01:58:41;;;;;;;120.93;63.90;;;;;;;;;;4465316;32;20328;-53
2021/11/14 02:01:08;;;;;;;136.60;66.10;;;;;;;;;;4464860;32;20795;-52
2021/11/14 02:03:36;;;;;;;141.93;69.03;;;;;;;;;;4466333;32;20212;-53
2021/11/14 02:06:04;;;;;;;147.90;72.67;;;;;;;;;;4458850;32;20354;-54
2021/11/14 02:08:30;;;;;;;143.17;71.43;;;;;;;;;;4450455;32;20248;-52
2021/11/14 02:10:57;;;;;;;151.03;73.63;;;;;;;;;;4454628;32;20196;-53
2021/11/14 02:13:23;;;;;;;159.23;74.80;;;;;;;;;;4452666;32;20228;-53
2021/11/14 02:15:48;;;;;;;143.80;72.50;;;;;;;;;;4453187;32;20329;-53
2021/11/14 02:18:15;;;;;;;160.07;73.27;;;;;;;;;;4457070;32;20305;-52
2021/11/14 02:20:44;;;;;;;143.60;73.67;;;;;;;;;;4466291;32;20216;-54
2021/11/14 02:23:12;;;;;;;127.10;67.47;;;;;;;;;;4465723;32;20260;-52
2021/11/14 02:25:38;;;;;;;131.50;68.67;;;;;;;;;;4465628;32;20328;-53
2021/11/14 02:28:04;;;;;;;135.37;67.97;;;;;;;;;;4466438;32;20425;-53
2021/11/14 02:30:30;;;;;;;135.17;67.30;;;;;;;;;;4466177;32;20283;-53
2021/11/14 02:32:56;;;;;;;138.70;65.57;;;;;;;;;;4465992;32;20220;-52
2021/11/14 02:35:24;;;;;;;120.53;63.33;;;;;;;;;;4465973;32;20271;-55
2021/11/14 02:37:50;;;;;;;123.60;62.43;;;;;;;;;;4465625;32;20239;-53
2021/11/14 02:40:16;;;;;;;137.27;66.20;;;;;;;;;;4464441;32;20315;-52
2021/11/14 02:42:43;;;;;;;114.30;55.40;;;;;;;;;;4464891;32;20416;-53
2021/11/14 02:45:10;;;;;;;114.63;55.80;;;;;;;;;;4465751;32;20317;-53
2021/11/14 02:47:37;;;;;;;90.83;46.20;;;;;;;;;;4457917;32;20267;-54
2021/11/14 02:50:08;;;;;;;82.20;40.67;;;;;;;;;;4450069;32;20259;-54
2021/11/14 02:52:34;;;;;;;71.63;33.27;;;;;;;;;;4465854;32;20333;-55
2021/11/14 02:55:00;;;;;;;60.60;32.43;;;;;;;;;;4465980;32;20295;-55
2021/11/14 02:57:26;;;;;;;72.93;34.90;;;;;;;;;;4465512;32;20312;-54
2021/11/14 02:59:52;;;;;;;69.37;32.73;;;;;;;;;;4451477;32;20275;-55
2021/11/14 03:02:18;;;;;;;73.63;35.97;;;;;;;;;;4449682;32;20305;-56
2021/11/14 03:04:43;;;;;;;72.97;36.23;;;;;;;;;;4449807;32;20714;-56
2021/11/14 03:07:09;;;;;;;69.33;35.20;;;;;;;;;;4464293;32;20663;-54
2021/11/14 03:09:35;;;;;;;84.07;40.63;;;;;;;;;;4465667;32;20275;-54
2021/11/14 03:12:02;;;;;;;82.00;41.97;;;;;;;;;;4460669;32;20359;-53
2021/11/14 03:14:28;;;;;;;104.03;56.17;;;;;;;;;;4449907;32;20229;-53
2021/11/14 03:16:54;;;;;;;100.83;54.93;;;;;;;;;;4453328;32;20345;-53
2021/11/14 03:19:19;;;;;;;119.17;60.40;;;;;;;;;;4463624;32;20503;-53
2021/11/14 03:21:45;;;;;;;106.90;54.00;;;;;;;;;;4465197;32;20270;-53
2021/11/14 03:24:11;;;;;;;120.07;60.00;;;;;;;;;;4459073;32;20295;-54
2021/11/14 03:26:37;;;;;;;134.00;69.00;;;;;;;;;;4449529;32;20274;-54
2021/11/14 03:29:04;;;;;;;138.53;71.10;;;;;;;;;;4449639;32;20554;-54
2021/11/14 03:31:30;;;;;;;147.67;69.37;;;;;;;;;;4449089;32;20650;-53
2021/11/14 03:33:57;;;;;;;143.53;65.60;;;;;;;;;;4449205;32;20649;-55
2021/11/14 03:36:23;;;;;;;136.13;64.33;;;;;;;;;;4448860;32;20244;-52
2021/11/14 03:38:52;;;;;;;141.20;71.47;;;;;;;;;;4449274;32;20284;-53
2021/11/14 03:41:21;;;;;;;163.53;76.17;;;;;;;;;;4448839;32;20588;-53
2021/11/14 03:43:47;;;;;;;153.73;73.40;;;;;;;;;;4456194;32;20200;-53
2021/11/14 03:46:13;;;;;;;146.90;68.50;;;;;;;;;;4463101;32;20319;-53
2021/11/14 03:48:41;;;;;;;150.70;71.30;;;;;;;;;;4463161;32;20425;-54
2021/11/14 03:51:07;;;;;;;146.17;79.37;;;;;;;;;;4464240;32;20232;-53
2021/11/14 03:53:33;;;;;;;145.03;75.60;;;;;;;;;;4464293;32;20227;-53
2021/11/14 03:55:59;;;;;;;150.27;79.67;;;;;;;;;;4464041;32;20340;-53
2021/11/14 03:58:24;;;;;;;153.93;81.13;;;;;;;;;;4464116;32;20305;-55
2021/11/14 04:00:57;;;;;;;162.87;84.47;;;;;;;;;;4464181;32;20519;-53
2021/11/14 04:03:23;;;;;;;166.67;83.97;;;;;;;;;;4464523;32;20557;-53
2021/11/14 04:05:49;;;;;;;158.20;76.97;;;;;;;;;;4457940;32;20303;-54
2021/11/14 04:08:17;;;;;;;140.73;75.67;;;;;;;;;;4448518;32;20370;-55
2021/11/14 04:10:45;;;;;;;118.70;65.33;;;;;;;;;;4450016;32;20279;-55
2021/11/14 04:13:11;;;;;;;122.17;66.77;;;;;;;;;;4463449;32;20283;-53
2021/11/14 04:15:38;;;;;;;121.47;63.27;;;;;;;;;;4464219;32;20321;-53
2021/11/14 04:18:04;;;;;;;140.90;67.30;;;;;;;;;;4463922;32;20256;-54
2021/11/14 04:20:32;;;;;;;125.03;63.50;;;;;;;;;;4463913;32;20414;-55
2021/11/14 04:22:58;;;;;;;123.43;63.83;;;;;;;;;;4463778;32;20281;-55
2021/11/14 04:25:25;;;;;;;127.97;67.53;;;;;;;;;;4463269;32;20330;-55
2021/11/14 04:27:51;;;;;;;147.90;67.80;;;;;;;;;;4463845;32;20255;-53
2021/11/14 04:30:17;;;;;;;146.30;65.33;;;;;;;;;;4463985;32;20279;-55
2021/11/14 04:32:44;;;;;;;151.47;69.07;;;;;;;;;;4463589;32;20264;-53
2021/11/14 04:35:11;;;;;;;107.50;54.17;;;;;;;;;;4463575;32;20682;-54
2021/11/14 04:37:37;;;;;;;86.97;47.30;;;;;;;;;;4463570;32;20217;-54
2021/11/14 04:40:05;;;;;;;82.23;43.73;;;;;;;;;;4463695;32;20291;-53
2021/11/14 04:42:30;;;;;;;83.07;45.10;;;;;;;;;;4463582;32;20357;-51
2021/11/14 04:44:56;;;;;;;91.37;48.30;;;;;;;;;;4464018;32;20271;-53
2021/11/14 04:47:21;;;;;;;85.67;45.10;;;;;;;;;;4463544;32;20635;-53
2021/11/14 04:49:47;;;;;;;100.10;51.37;;;;;;;;;;4463655;32;20343;-53
2021/11/14 04:52:12;;;;;;;96.87;50.00;;;;;;;;;;4450194;32;20313;-53
2021/11/14 04:54:38;;;;;;;101.27;51.37;;;;;;;;;;4446798;32;20366;-54
2021/11/14 04:57:04;;;;;;;94.53;49.93;;;;;;;;;;4447404;32;20728;-52
2021/11/14 04:59:30;;;;;;;109.20;51.93;;;;;;;;;;4447979;32;20298;-53
2021/11/14 05:01:55;;;;;;;103.40;50.47;;;;;;;;;;4447783;32;20592;-53
2021/11/14 05:04:21;;;;;;;92.33;48.10;;;;;;;;;;4447794;32;20340;-52
2021/11/14 05:06:46;;;;;;;107.57;50.50;;;;;;;;;;4458083;32;20236;-53
2021/11/14 05:09:12;;;;;;;98.33;48.70;;;;;;;;;;4463664;32;20271;-53
2021/11/14 05:11:38;;;;;;;92.40;51.97;;;;;;;;;;4463347;32;20239;-52
2021/11/14 05:14:04;;;;;;;111.60;57.60;;;;;;;;;;4463290;32;20275;-53
2021/11/14 05:16:29;;;;;;;117.27;56.10;;;;;;;;;;4460004;32;20276;-53
2021/11/14 05:18:56;;;;;;;90.47;52.00;;;;;;;;;;4452484;32;20279;-55
2021/11/14 05:21:22;;;;;;;86.87;50.00;;;;;;;;;;4447628;32;20241;-52
2021/11/14 05:23:47;;;;;;;92.57;49.57;;;;;;;;;;4449415;32;20317;-54
2021/11/14 05:26:13;;;;;;;97.57;51.20;;;;;;;;;;4462987;32;20715;-52
2021/11/14 05:28:39;;;;;;;110.93;48.30;;;;;;;;;;4463391;32;20722;-53
2021/11/14 05:31:05;;;;;;;95.63;49.23;;;;;;;;;;4463254;32;20228;-53
2021/11/14 05:33:30;;;;;;;83.43;47.30;;;;;;;;;;4463341;32;20666;-53
2021/11/14 05:35:56;;;;;;;98.93;51.83;;;;;;;;;;4462924;32;20303;-52
2021/11/14 05:38:22;;;;;;;106.10;51.70;;;;;;;;;;4461768;32;20718;-54
2021/11/14 05:40:47;;;;;;;99.43;49.63;;;;;;;;;;4448990;32;20312;-52
2021/11/14 05:43:14;;;;;;;136.17;61.83;;;;;;;;;;4462845;32;20212;-52
2021/11/14 05:45:41;;;;;;;130.30;67.63;;;;;;;;;;4462852;32;20204;-53
2021/11/14 05:48:07;;;;;;;161.83;86.07;;;;;;;;;;4452561;32;20252;-53
2021/11/14 05:50:32;;;;;;;163.20;89.77;;;;;;;;;;4447629;32;20283;-53
2021/11/14 05:52:58;;;;;;;146.67;76.60;;;;;;;;;;4447917;32;20782;-52
2021/11/14 05:55:24;;;;;;;128.00;66.70;;;;;;;;;;4446336;32;20275;-55
2021/11/14 06:00:24;;;;;;;113.90;61.47;;;;;;;;;;4447359;32;20279;-52
2021/11/14 06:02:54;;;;;;;122.30;62.07;;;;;;;;;;4447525;32;20360;-53
2021/11/14 06:05:20;;;;;;;133.10;70.80;;;;;;;;;;4450283;32;20540;-52
2021/11/14 06:07:47;;;;;;;123.87;67.00;;;;;;;;;;4462585;32;20295;-54
2021/11/14 06:10:14;;;;;;;154.33;74.70;;;;;;;;;;4463160;32;20232;-52
2021/11/14 06:12:40;;;;;;;145.47;71.07;;;;;;;;;;4462964;32;20215;-51
2021/11/14 06:15:08;;;;;;;176.87;95.10;;;;;;;;;;4463289;32;20367;-52
2021/11/14 06:17:34;;;;;;;169.77;92.20;;;;;;;;;;4464170;32;20303;-53
2021/11/14 06:20:00;;;;;;;155.83;75.13;;;;;;;;;;4465952;32;20326;-53
2021/11/14 06:22:25;;;;;;;138.57;74.33;;;;;;;;;;4465730;32;20248;-52
2021/11/14 06:24:51;;;;;;;154.03;83.03;;;;;;;;;;4465317;32;20275;-51
2021/11/14 06:27:17;;;;;;;155.73;87.60;;;;;;;;;;4465770;32;20246;-52
2021/11/14 06:29:42;;;;;;;184.90;99.50;;;;;;;;;;4465982;32;20390;-54
2021/11/14 06:32:09;;;;;;;187.83;104.77;;;;;;;;;;4465848;32;20939;-52
2021/11/14 06:34:35;;;;;;;224.90;118.37;;;;;;;;;;4466151;32;20727;-53
2021/11/14 06:37:00;;;;;;;208.53;109.90;;;;;;;;;;4465906;32;20224;-53
2021/11/14 06:39:26;;;;;;;206.37;108.33;;;;;;;;;;4465937;32;20298;-55
2021/11/14 06:41:52;;;;;;;196.67;104.00;;;;;;;;;;4465909;32;20238;-53
2021/11/14 06:44:17;;;;;;;185.17;101.00;;;;;;;;;;4465800;32;20291;-53
2021/11/14 06:46:43;;;;;;;180.50;93.83;;;;;;;;;;4464740;32;20327;-54
2021/11/14 06:49:08;;;;;;;181.43;95.63;;;;;;;;;;4466074;32;20359;-56
2021/11/14 06:51:34;;;;;;;214.20;105.63;;;;;;;;;;4466107;32;20377;-55
2021/11/14 06:53:59;;;;;;;214.03;108.57;;;;;;;;;;4466196;32;20390;-53
2021/11/14 06:56:25;;;;;;;223.43;113.07;;;;;;;;;;4465999;32;20242;-54
2021/11/14 06:58:51;;;;;;;209.20;113.97;;;;;;;;;;4466131;32;20279;-55
2021/11/14 07:01:16;;;;;;;208.43;111.23;;;;;;;;;;4465627;32;20270;-54
2021/11/14 07:03:42;;;;;;;199.53;109.67;;;;;;;;;;4450338;32;20223;-54
2021/11/14 07:06:08;;;;;;;259.50;136.70;;;;;;;;;;4449861;32;20243;-53
2021/11/14 07:08:33;;;;;;;277.03;146.30;;;;;;;;;;4448699;32;20303;-52
2021/11/14 07:10:59;;;;;;;307.83;151.43;;;;;;;;;;4454372;32;20354;-50
2021/11/14 07:13:25;;;;;;;315.47;162.37;;;;;;;;;;4465319;32;20303;-55
2021/11/14 07:15:50;;;;;;;287.33;152.10;;;;;;;;;;4457929;32;20238;-53
2021/11/14 07:18:16;;;;;;;276.17;145.90;;;;;;;;;;4456186;32;20330;-54
2021/11/14 07:20:42;;;;;;;249.57;130.93;;;;;;;;;;4456850;32;20313;-54
2021/11/14 07:23:07;;;;;;;208.77;110.13;;;;;;;;;;4462351;32;20613;-52
2021/11/14 07:25:33;;;;;;;213.83;107.63;;;;;;;;;;4461668;32;20719;-53
2021/11/14 07:27:58;;;;;;;182.20;95.37;;;;;;;;;;4461399;32;20308;-54
2021/11/14 07:30:25;;;;;;;121.23;66.67;;;;;;;;;;4464201;32;20317;-54
2021/11/14 07:32:52;;;;;;;125.50;68.27;;;;;;;;;;4453605;32;20244;-52
2021/11/14 07:35:20;;;;;;;149.00;75.40;;;;;;;;;;4461821;32;20567;-51
2021/11/14 07:37:46;;;;;;;145.60;79.70;;;;;;;;;;4458514;32;20244;-53
2021/11/14 07:40:14;;;;;;;110.20;63.60;;;;;;;;;;4455795;32;20296;-53
2021/11/14 07:42:44;;;;;;;118.33;66.27;;;;;;;;;;4454435;32;20232;-55
2021/11/14 07:45:12;;;;;;;109.57;60.53;;;;;;;;;;4461800;32;20291;-55
2021/11/14 07:47:38;;;;;;;107.00;59.30;;;;;;;;;;4461080;32;20600;-54
2021/11/14 07:50:04;;;;;;;99.57;53.73;;;;;;;;;;4454258;32;20286;-53
2021/11/14 07:52:31;;;;;;;78.37;43.43;;;;;;;;;;4453847;32;20240;-52
2021/11/14 07:54:57;;;;;;;91.37;51.47;;;;;;;;;;4453514;32;20288;-53
2021/11/14 07:57:24;;;;;;;100.47;56.17;;;;;;;;;;4451450;32;20315;-52
2021/11/14 07:59:50;;;;;;;102.50;55.03;;;;;;;;;;4451016;32;20304;-53
2021/11/14 08:02:16;;;;;;;93.50;50.53;;;;;;;;;;4454778;32;20263;-51
2021/11/14 08:04:41;;;;;;;100.47;56.83;;;;;;;;;;4456830;32;20292;-53
2021/11/14 08:07:07;;;;;;;100.77;55.30;;;;;;;;;;4464059;32;20254;-53
2021/11/14 08:09:32;;;;;;;117.03;63.20;;;;;;;;;;4449882;32;20302;-53
2021/11/14 08:11:57;;;;;;;126.70;69.63;;;;;;;;;;4460509;32;20284;-54
2021/11/14 08:14:23;;;;;;;97.97;54.47;;;;;;;;;;4449034;32;20360;-53
2021/11/14 08:16:48;;;;;;;91.50;54.70;;;;;;;;;;4459431;32;20443;-52
2021/11/14 08:19:14;;;;;;;91.10;55.43;;;;;;;;;;4461222;32;20259;-53
2021/11/14 08:21:39;;;;;;;114.77;63.60;;;;;;;;;;4460015;32;20579;-53
2021/11/14 08:24:06;;;;;;;105.60;60.47;;;;;;;;;;4451700;32;20336;-55
2021/11/14 08:26:31;;;;;;;108.07;60.43;;;;;;;;;;4454195;32;20221;-53
2021/11/14 08:28:58;;;;;;;105.57;61.30;;;;;;;;;;4460279;32;20301;-50
2021/11/14 08:31:24;;;;;;;90.67;52.13;;;;;;;;;;4447739;32;20619;-52
2021/11/14 08:33:50;;;;;;;92.23;50.70;;;;;;;;;;4453424;32;20204;-53
2021/11/14 08:36:16;;;;;;;81.70;49.60;;;;;;;;;;4463443;32;20246;-53
2021/11/14 08:38:42;;;;;;;89.77;54.10;;;;;;;;;;4463984;32;20410;-52
2021/11/14 08:41:08;;;;;;;79.83;42.97;;;;;;;;;;4462409;32;20278;-49
2021/11/14 08:43:36;;;;;;;75.50;38.43;;;;;;;;;;4459767;32;20749;-52
2021/11/14 08:46:02;;;;;;;67.83;34.70;;;;;;;;;;4446663;32;20680;-51
2021/11/14 08:48:27;;;;;;;118.57;67.43;;;;;;;;;;4456237;32;20323;-54
2021/11/14 08:50:54;;;;;;;91.90;53.50;;;;;;;;;;4463009;32;20291;-53
2021/11/14 08:53:19;;;;;;;59.43;37.03;;;;;;;;;;4450861;32;20291;-52
2021/11/14 08:55:45;;;;;;;74.57;40.47;;;;;;;;;;4459391;32;20302;-54
2021/11/14 08:58:11;;;;;;;56.53;30.63;;;;;;;;;;4452867;32;20238;-54
2021/11/14 09:00:36;;;;;;;50.23;29.73;;;;;;;;;;4458380;32;20247;-54
2021/11/14 09:03:02;;;;;;;52.07;29.87;;;;;;;;;;4463809;32;20319;-54
2021/11/14 09:05:30;;;;;;;59.97;31.63;;;;;;;;;;4463986;32;20299;-55
2021/11/14 09:08:00;;;;;;;61.43;33.10;;;;;;;;;;4463550;32;20251;-54
2021/11/14 09:10:25;;;;;;;62.03;36.37;;;;;;;;;;4464017;32;20387;-55
2021/11/14 09:12:51;;;;;;;77.77;38.27;;;;;;;;;;4464218;32;20228;-54
2021/11/14 09:15:19;;;;;;;58.87;33.93;;;;;;;;;;4463971;32;20294;-59
2021/11/14 09:17:45;;;;;;;47.57;28.10;;;;;;;;;;4464314;32;20215;-54
2021/11/14 09:20:11;;;;;;;62.37;36.80;;;;;;;;;;4463659;32;20325;-55
2021/11/14 09:22:37;;;;;;;60.90;36.60;;;;;;;;;;4448669;32;20304;-54
2021/11/14 09:25:04;;;;;;;41.73;26.57;;;;;;;;;;4456964;32;20279;-55
2021/11/14 09:27:29;;;;;;;50.67;26.77;;;;;;;;;;4455132;32;20312;-55
2021/11/14 09:29:55;;;;;;;41.20;24.63;;;;;;;;;;4448829;32;20807;-55
2021/11/14 09:32:20;;;;;;;42.83;24.93;;;;;;;;;;4453859;32;20249;-54
2021/11/14 09:34:46;;;;;;;34.80;21.13;;;;;;;;;;4455238;32;20270;-53
2021/11/14 09:37:11;;;;;;;38.63;23.87;;;;;;;;;;4461111;32;20557;-54
2021/11/14 09:39:37;;;;;;;30.73;19.67;;;;;;;;;;4455333;32;20400;-53
2021/11/14 09:42:03;;;;;;;32.90;19.47;;;;;;;;;;4454684;32;20319;-54
2021/11/14 09:44:29;;;;;;;25.97;16.63;;;;;;;;;;4447423;32;20272;-54
2021/11/14 09:46:58;;;;;;;23.83;14.30;;;;;;;;;;4448521;32;20298;-54
2021/11/14 09:49:27;;;;;;;30.03;16.10;;;;;;;;;;4447470;32;20277;-54
2021/11/14 09:51:54;;;;;;;31.93;15.50;;;;;;;;;;4450724;32;20327;-54
2021/11/14 09:54:22;;;;;;;32.17;18.43;;;;;;;;;;4471921;32;20547;-53
2021/11/14 09:56:47;;;;;;;36.57;19.53;;;;;;;;;;4466869;32;20594;-53
2021/11/14 09:59:14;;;;;;;46.73;21.63;;;;;;;;;;4466704;32;20267;-56
2021/11/14 10:01:40;;;;;;;55.90;21.47;;;;;;;;;;4467269;32;20344;-54
2021/11/14 10:04:07;;;;;;;30.93;17.77;;;;;;;;;;4467577;32;20294;-54
2021/11/14 10:06:34;;;;;;;32.60;17.47;;;;;;;;;;4456089;32;20276;-54
2021/11/14 10:08:59;;;;;;;27.03;15.87;;;;;;;;;;4451376;32;20295;-54
2021/11/14 10:11:50;;;;;;;26.63;15.70;;;;;;;;;;4458537;32;20310;-54
2021/11/14 10:14:21;;;;;;;23.03;14.70;;;;;;;;;;4465224;32;20246;-54
2021/11/14 10:16:47;;;;;;;20.07;13.40;;;;;;;;;;4466247;32;20247;-54
2021/11/14 10:19:13;;;;;;;21.43;14.70;;;;;;;;;;4467240;32;20769;-54
2021/11/14 10:21:39;;;;;;;19.30;15.07;;;;;;;;;;4466162;32;20666;-54
2021/11/14 10:24:08;;;;;;;27.47;17.30;;;;;;;;;;4461713;32;20216;-54
2021/11/14 10:26:35;;;;;;;23.77;15.77;;;;;;;;;;4463247;32;20294;-56
2021/11/14 10:29:20;;;;;;;23.83;14.67;;;;;;;;;;4467975;31;20224;-55
2021/11/14 10:31:46;;;;;;;22.97;13.83;;;;;;;;;;4458353;32;20307;-54
2021/11/14 10:34:16;;;;;;;20.93;13.27;;;;;;;;;;4458663;32;20287;-55
2021/11/14 10:36:41;;;;;;;19.43;13.37;;;;;;;;;;4454710;32;20391;-55
2021/11/14 10:39:11;;;;;;;18.97;13.90;;;;;;;;;;4463408;32;20803;-54
2021/11/14 10:41:44;;;;;;;22.30;13.47;;;;;;;;;;4461519;32;20394;-55
2021/11/14 10:44:12;;;;;;;24.43;14.17;;;;;;;;;;4458274;32;20296;-56
2021/11/14 10:46:38;;;;;;;20.53;14.37;;;;;;;;;;4466126;32;20331;-55
2021/11/14 10:49:06;;;;;;;22.90;14.27;;;;;;;;;;4465892;32;20298;-56
2021/11/14 10:51:32;;;;;;;25.33;15.57;;;;;;;;;;4462372;32;20240;-57
2021/11/14 10:53:58;;;;;;;20.53;12.97;;;;;;;;;;4457430;32;20279;-55
2021/11/14 10:56:23;;;;;;;20.77;13.93;;;;;;;;;;4456633;32;20320;-55
2021/11/14 10:58:53;;;;;;;30.63;15.03;;;;;;;;;;4463288;32;20360;-55
2021/11/14 11:01:18;;;;;;;40.30;22.73;;;;;;;;;;4462798;32;20263;-55
2021/11/14 11:03:48;;;;;;;51.73;27.93;;;;;;;;;;4452713;32;20311;-54
2021/11/14 11:06:26;;;;;;;35.73;20.50;;;;;;;;;;4461519;32;20216;-54
2021/11/14 11:08:59;;;;;;;20.80;14.10;;;;;;;;;;4453461;32;20637;-54
2021/11/14 11:11:25;;;;;;;19.20;12.47;;;;;;;;;;4457242;32;20236;-55
2021/11/14 11:13:52;;;;;;;19.90;14.07;;;;;;;;;;4465282;32;20686;-55
2021/11/14 11:16:23;;;;;;;21.33;13.60;;;;;;;;;;4461568;32;20252;-55
2021/11/14 11:19:02;;;;;;;24.70;13.53;;;;;;;;;;4462805;32;20378;-55
2021/11/14 11:21:35;;;;;;;17.67;11.10;;;;;;;;;;4453359;32;20247;-56
2021/11/14 11:24:09;;;;;;;20.67;12.30;;;;;;;;;;4457852;32;20216;-54
2021/11/14 11:26:35;;;;;;;24.57;14.83;;;;;;;;;;4465382;32;20246;-55
2021/11/14 11:29:12;;;;;;;19.27;13.57;;;;;;;;;;4459156;32;20651;-54
2021/11/14 11:31:37;;;;;;;20.37;14.73;;;;;;;;;;4465340;32;20219;-54
2021/11/14 11:34:03;;;;;;;19.57;12.93;;;;;;;;;;4458500;32;20330;-56
2021/11/14 11:36:29;;;;;;;21.47;13.87;;;;;;;;;;4458660;32;20738;-53
2021/11/14 11:38:54;;;;;;;29.23;15.20;;;;;;;;;;4454803;32;20283;-54
2021/11/14 11:41:20;;;;;;;36.73;21.63;;;;;;;;;;4464337;32;20395;-54
2021/11/14 11:43:46;;;;;;;16.40;10.60;;;;;;;;;;4457758;32;20772;-53
2021/11/14 11:46:18;;;;;;;20.60;10.50;;;;;;;;;;4463021;32;20585;-53
2021/11/14 11:48:50;;;;;;;19.90;11.33;;;;;;;;;;4452902;32;20241;-54
2021/11/14 11:51:27;;;;;;;16.83;12.17;;;;;;;;;;4464296;32;20262;-54
2021/11/14 11:54:04;;;;;;;17.30;11.47;;;;;;;;;;4464977;32;20214;-54
2021/11/14 11:56:41;;;;;;;18.07;11.90;;;;;;;;;;4458995;32;20220;-53
2021/11/14 11:59:35;;;;;;;18.93;11.80;;;;;;;;;;4450049;32;20259;-54
2021/11/14 12:02:11;;;;;;;19.30;12.43;;;;;;;;;;4455631;32;20689;-53
2021/11/14 12:04:39;;;;;;;18.30;12.53;;;;;;;;;;4452701;32;20306;-53
2021/11/14 12:07:06;;;;;;;21.43;12.63;;;;;;;;;;4463353;32;20311;-54
2021/11/14 12:09:37;;;;;;;19.27;12.90;;;;;;;;;;4463424;32;20674;-54
2021/11/14 12:12:04;;;;;;;24.67;14.23;;;;;;;;;;4463957;32;20231;-53
2021/11/14 12:14:32;;;;;;;20.83;13.20;;;;;;;;;;4463085;32;20303;-54
2021/11/14 12:17:09;;;;;;;23.37;13.50;;;;;;;;;;4450082;32;20289;-54
2021/11/14 12:19:37;;;;;;;24.07;13.70;;;;;;;;;;4460414;32;20240;-54
2021/11/14 12:22:16;;;;;;;22.00;13.27;;;;;;;;;;4454231;32;20224;-53
2021/11/14 12:24:59;;;;;;;25.60;14.83;;;;;;;;;;4457408;32;20231;-54
2021/11/14 12:27:35;;;;;;;22.40;14.63;;;;;;;;;;4449455;32;20378;-54
2021/11/14 12:30:04;;;;;;;22.70;13.60;;;;;;;;;;4460397;32;20318;-55
2021/11/14 12:32:45;;;;;;;20.17;14.23;;;;;;;;;;4451602;32;20353;-54
2021/11/14 12:35:20;;;;;;;20.53;13.90;;;;;;;;;;4452853;32;20258;-54
2021/11/14 12:37:52;;;;;;;27.47;13.43;;;;;;;;;;4459933;32;21238;-54
2021/11/14 12:40:25;;;;;;;18.00;12.93;;;;;;;;;;4451862;32;20685;-54
2021/11/14 12:42:51;;;;;;;21.03;14.90;;;;;;;;;;4452693;32;20279;-54
2021/11/14 12:45:18;;;;;;;26.37;15.27;;;;;;;;;;4461206;32;20314;-56
2021/11/14 12:47:50;;;;;;;19.67;13.73;;;;;;;;;;4451011;32;20613;-54
2021/11/14 12:50:16;;;;;;;27.70;15.43;;;;;;;;;;4453632;32;20316;-54
2021/11/14 12:52:48;;;;;;;22.63;15.23;;;;;;;;;;4455378;32;20224;-54
2021/11/14 12:55:23;;;;;;;29.40;16.30;;;;;;;;;;4462464;32;20711;-55
2021/11/14 12:57:58;;;;;;;26.03;15.97;;;;;;;;;;4451229;32;20418;-54
2021/11/14 13:00:38;;;;;;;26.00;16.10;;;;;;;;;;4456661;32;20212;-54
2021/11/14 13:03:06;;;;;;;24.00;15.53;;;;;;;;;;4456927;32;20228;-55
2021/11/14 13:05:48;;;;;;;33.17;17.50;;;;;;;;;;4462473;32;20357;-54
2021/11/14 13:08:21;;;;;;;27.27;17.27;;;;;;;;;;4451451;32;20331;-55
2021/11/14 13:10:50;;;;;;;29.03;19.30;;;;;;;;;;4459744;32;20590;-55
2021/11/14 13:13:37;;;;;;;29.07;18.00;;;;;;;;;;4463927;32;20231;-55
2021/11/14 13:16:12;;;;;;;33.23;19.37;;;;;;;;;;4460624;32;20250;-55
2021/11/14 13:18:38;;;;;;;33.57;18.50;;;;;;;;;;4455993;32;20652;-54
2021/11/14 13:21:14;;;;;;;23.90;15.70;;;;;;;;;;4461875;32;20250;-54
2021/11/14 13:23:52;;;;;;;22.40;14.80;;;;;;;;;;4452385;32;20246;-54
2021/11/14 13:26:18;;;;;;;33.00;19.40;;;;;;;;;;4446283;32;20706;-55
2021/11/14 13:28:43;;;;;;;26.43;16.97;;;;;;;;;;4448751;32;20275;-55
2021/11/14 13:31:18;;;;;;;30.83;18.60;;;;;;;;;;4453131;32;20308;-54
2021/11/14 13:33:59;;;;;;;24.83;16.40;;;;;;;;;;4460938;32;20256;-56
2021/11/14 13:36:25;;;;;;;29.03;16.80;;;;;;;;;;4453080;32;20274;-54
2021/11/14 13:38:50;;;;;;;28.30;17.23;;;;;;;;;;4460083;32;20279;-56
2021/11/14 13:41:18;;;;;;;26.57;16.40;;;;;;;;;;4452215;32;20350;-55
2021/11/14 13:43:53;;;;;;;29.70;17.50;;;;;;;;;;4447790;32;20263;-55
2021/11/14 13:46:19;;;;;;;33.57;20.63;;;;;;;;;;4463086;32;20235;-55
2021/11/14 13:48:49;;;;;;;32.93;20.03;;;;;;;;;;4464269;32;20276;-55
2021/11/14 13:51:15;;;;;;;43.57;23.07;;;;;;;;;;4464150;32;20240;-54
2021/11/14 13:53:40;;;;;;;44.20;25.30;;;;;;;;;;4463125;32;20334;-53
2021/11/14 13:56:06;;;;;;;43.73;24.67;;;;;;;;;;4464131;32;20291;-55
2021/11/14 13:58:41;;;;;;;51.03;26.60;;;;;;;;;;4464057;32;20333;-55
2021/11/14 14:01:08;;;;;;;52.97;28.93;;;;;;;;;;4462975;32;20250;-55
2021/11/14 14:03:40;;;;;;;53.57;31.50;;;;;;;;;;4463370;32;20236;-55
2021/11/14 14:06:07;;;;;;;66.57;32.53;;;;;;;;;;4463293;32;20628;-54
2021/11/14 14:08:34;;;;;;;65.20;32.80;;;;;;;;;;4463528;32;20204;-55
2021/11/14 14:11:05;;;;;;;66.37;34.67;;;;;;;;;;4457263;32;20220;-54
2021/11/14 14:13:32;;;;;;;61.23;28.93;;;;;;;;;;4447606;32;20259;-55
2021/11/14 14:15:58;;;;;;;75.47;38.00;;;;;;;;;;4457672;32;20197;-55